Terminal Aerodrome Forecast
Issued by NWS Charleston, WV

Current Version | Previous Version | Text Only | Print | Product List | Glossary Off
Versions: 1 2 3 4 5 6 7 8 9 10 11 12 13 14 15 16 17 18 19 20 21 22 23 24 25 26 27 28

000
FTUS41 KRLX 300200 AAA
TAFEKN
TAF AMD
KEKN 300216Z 3002/3024 24008KT 4SM -SHRASN BR OVC015
      TEMPO 3002/3004 6SM -SHRASN
     FM300400 28010G18KT 3SM -SHSN BR OVC012
     FM300700 28007KT 3SM -SHSN BR OVC010
      TEMPO 3007/3011 1SM -SN BR OVC008
     FM301700 30009G20KT 1SM -SHSN BR SCT001 BKN025
     FM302200 30009G18KT P6SM -SHSN BKN025=

USA.gov is the U.S. government's official web portal to all federal, state and local government web resources and services.